createdAt,value
2018-09-28T00:01:27.278Z,77.42
2018-09-28T00:03:55.870Z,77.52
2018-09-28T00:06:24.372Z,78.61
2018-09-28T00:08:53.514Z,77.58
2018-09-28T00:11:22.222Z,77.71
2018-09-28T00:13:50.710Z,78.66
2018-09-28T00:16:19.561Z,79.11
2018-09-28T00:18:48.139Z,79.16
2018-09-28T00:21:17.305Z,80.32
2018-09-28T00:23:45.863Z,80.19
2018-09-28T00:26:15.240Z,79.21
2018-09-28T00:28:43.735Z,78.90
2018-09-28T00:31:12.262Z,79.74
2018-09-28T00:33:40.762Z,78.80
2018-09-28T00:36:09.307Z,79.21
2018-09-28T00:38:38.115Z,79.49
2018-09-28T00:41:06.859Z,79.03
2018-09-28T00:43:35.375Z,79.68
2018-09-28T00:46:03.897Z,80.04
2018-09-28T00:48:32.441Z,79.79
2018-09-28T00:51:01.282Z,79.89
2018-09-28T00:53:29.906Z,79.33
2018-09-28T00:55:58.475Z,80.09
2018-09-28T00:58:27.121Z,79.92
2018-09-28T01:00:55.647Z,80.18
2018-09-28T01:03:24.691Z,80.87
2018-09-28T01:05:53.228Z,80.31
2018-09-28T01:08:21.811Z,81.19
2018-09-28T01:10:50.310Z,81.43
2018-09-28T01:13:19.147Z,81.56
2018-09-28T01:15:48.774Z,81.68
2018-09-28T01:18:17.431Z,82.00
2018-09-28T01:20:45.951Z,82.35
2018-09-28T01:23:16.698Z,82.08
2018-09-28T01:25:45.290Z,82.92
2018-09-28T01:28:13.806Z,83.01
2018-09-28T01:30:42.305Z,83.00
2018-09-28T01:33:10.874Z,82.47
2018-09-28T01:35:39.415Z,82.72
2018-09-28T01:38:08.055Z,83.09
2018-09-28T01:40:36.579Z,83.63
2018-09-28T01:43:05.133Z,84.39
2018-09-28T01:45:33.698Z,84.52
2018-09-28T01:48:02.260Z,84.84
2018-09-28T01:50:30.842Z,85.68
2018-09-28T01:52:59.469Z,84.95
2018-09-28T01:55:28.016Z,85.22
2018-09-28T01:57:56.594Z,85.51
2018-09-28T02:00:25.143Z,85.66
2018-09-28T02:02:53.751Z,85.58
2018-09-28T02:05:22.291Z,85.65
2018-09-28T02:07:50.787Z,85.83
2018-09-28T02:10:19.359Z,85.63
2018-09-28T02:12:47.859Z,86.27
2018-09-28T02:15:16.375Z,86.18
2018-09-28T02:17:44.978Z,86.31
2018-09-28T02:20:13.477Z,86.88
2018-09-28T02:22:42.030Z,86.89
2018-09-28T02:25:10.695Z,86.78
2018-09-28T02:27:39.177Z,86.37
2018-09-28T02:30:08.112Z,86.56
2018-09-28T02:32:36.589Z,86.20
2018-09-28T02:35:05.503Z,86.36
2018-09-28T02:37:34.055Z,86.39
2018-09-28T02:40:02.611Z,86.87
2018-09-28T02:42:34.046Z,87.05
2018-09-28T02:45:02.818Z,87.11
2018-09-28T02:47:31.351Z,87.56
2018-09-28T02:49:59.875Z,88.12
2018-09-28T02:52:28.467Z,87.31
2018-09-28T02:54:57.021Z,87.11
2018-09-28T02:57:25.564Z,87.76
2018-09-28T02:59:56.989Z,87.96
2018-09-28T03:02:25.499Z,88.50
2018-09-28T03:04:54.069Z,89.18
2018-09-28T03:07:23.575Z,88.66
2018-09-28T03:09:52.111Z,89.16
2018-09-28T03:12:20.753Z,89.25
2018-09-28T03:14:49.227Z,89.12
2018-09-28T03:17:17.719Z,89.07
2018-09-28T03:19:46.241Z,89.42
2018-09-28T03:22:14.743Z,88.96
2018-09-28T03:24:43.285Z,88.72
2018-09-28T03:27:11.892Z,88.70
2018-09-28T03:29:40.417Z,88.23
2018-09-28T03:32:08.971Z,88.08
2018-09-28T03:34:37.499Z,87.64
2018-09-28T03:37:06.066Z,87.39
2018-09-28T03:39:34.562Z,87.55
2018-09-28T03:42:03.103Z,86.18
2018-09-28T03:44:31.755Z,85.38
2018-09-28T03:47:00.357Z,84.95
2018-09-28T03:49:29.022Z,83.43
2018-09-28T03:51:57.540Z,84.25
2018-09-28T03:54:26.050Z,83.11
2018-09-28T03:56:54.606Z,82.69
2018-09-28T03:59:23.376Z,82.85
2018-09-28T04:01:52.002Z,82.16
2018-09-28T04:04:20.518Z,83.11
2018-09-28T04:06:49.136Z,82.90
2018-09-28T04:09:17.712Z,82.33
2018-09-28T04:11:46.242Z,81.91
2018-09-28T04:14:14.805Z,80.62
2018-09-28T04:16:43.428Z,81.53
2018-09-28T04:19:11.942Z,80.67
2018-09-28T04:21:44.123Z,79.91
2018-09-28T04:24:12.803Z,78.88
2018-09-28T04:26:41.411Z,78.76
2018-09-28T04:29:10.288Z,78.99
2018-09-28T04:31:38.810Z,78.37
2018-09-28T04:34:07.411Z,78.63
2018-09-28T04:36:35.926Z,77.60
2018-09-28T04:39:05.747Z,77.28
2018-09-28T04:41:34.293Z,77.16
2018-09-28T04:44:02.850Z,77.14
2018-09-28T04:46:31.354Z,77.26
2018-09-28T04:48:59.965Z,77.46
2018-09-28T04:51:29.286Z,76.04
2018-09-28T04:53:57.972Z,76.10
2018-09-28T04:56:26.538Z,75.64
2018-09-28T04:58:55.082Z,75.54
2018-09-28T05:01:24.575Z,74.08
2018-09-28T05:03:54.083Z,74.01
2018-09-28T05:06:24.003Z,74.23
2018-09-28T05:08:52.663Z,74.34
2018-09-28T05:11:21.166Z,74.36
2018-09-28T05:13:49.712Z,74.03
2018-09-28T05:16:18.227Z,74.26
2018-09-28T05:18:46.755Z,73.76
2018-09-28T05:21:15.287Z,73.44
2018-09-28T05:23:43.871Z,74.07
2018-09-28T05:26:12.358Z,74.64
2018-09-28T05:28:40.879Z,75.32
2018-09-28T05:31:09.477Z,75.77
2018-09-28T05:33:38.046Z,75.37
2018-09-28T05:36:06.539Z,74.80
2018-09-28T05:38:35.027Z,74.92
2018-09-28T05:41:03.607Z,75.30
2018-09-28T05:43:32.094Z,74.49
2018-09-28T05:46:00.633Z,75.42
2018-09-28T05:48:29.142Z,73.49
2018-09-28T05:50:57.722Z,73.72
2018-09-28T05:53:26.299Z,73.52
2018-09-28T05:55:54.781Z,73.59
2018-09-28T05:58:28.580Z,73.86
2018-09-28T06:01:02.405Z,72.85
2018-09-28T06:03:30.945Z,72.94
2018-09-28T06:06:01.996Z,72.82
2018-09-28T06:08:30.681Z,72.33
2018-09-28T06:10:59.185Z,72.30
2018-09-28T06:13:27.730Z,72.65
2018-09-28T06:15:56.256Z,71.71
2018-09-28T06:18:24.899Z,71.67
2018-09-28T06:20:53.454Z,71.34
2018-09-28T06:23:21.977Z,71.43
2018-09-28T06:25:50.526Z,71.48
2018-09-28T06:28:19.023Z,71.41
2018-09-28T06:30:47.593Z,71.00
2018-09-28T06:33:16.140Z,71.48
2018-09-28T06:35:44.992Z,71.22
2018-09-28T06:38:13.702Z,71.42
2018-09-28T06:40:42.223Z,69.83
2018-09-28T06:43:10.742Z,70.67
2018-09-28T06:45:39.233Z,70.06
2018-09-28T06:48:07.860Z,69.76
2018-09-28T06:50:36.346Z,69.90
2018-09-28T06:53:04.893Z,68.98
2018-09-28T06:55:33.450Z,68.80
2018-09-28T06:58:02.160Z,68.15
2018-09-28T07:00:30.738Z,67.50
2018-09-28T07:02:59.539Z,66.80
2018-09-28T07:05:28.030Z,67.45
2018-09-28T07:07:56.531Z,66.91
2018-09-28T07:10:25.116Z,65.60
2018-09-28T07:12:53.652Z,66.53
2018-09-28T07:15:22.230Z,66.47
2018-09-28T07:17:50.807Z,65.33
2018-09-28T07:20:19.288Z,65.50
2018-09-28T07:22:47.802Z,65.38
2018-09-28T07:25:16.406Z,65.34
2018-09-28T07:27:45.239Z,64.10
2018-09-28T07:30:13.832Z,64.25
2018-09-28T07:32:42.355Z,65.66
2018-09-28T07:35:10.870Z,64.60
2018-09-28T07:37:39.470Z,65.06
2018-09-28T07:40:08.011Z,65.57
2018-09-28T07:42:36.524Z,65.02
2018-09-28T07:45:05.103Z,63.50
2018-09-28T07:47:33.635Z,63.14
2018-09-28T07:50:02.147Z,62.97
2018-09-28T07:52:30.702Z,62.75
2018-09-28T07:54:59.195Z,63.36
2018-09-28T07:57:27.723Z,64.63
2018-09-28T07:59:56.214Z,63.73
2018-09-28T08:02:24.682Z,63.05
2018-09-28T08:04:53.581Z,63.99
2018-09-28T08:07:22.117Z,62.91
2018-09-28T08:09:50.703Z,61.73
2018-09-28T08:12:19.321Z,59.72
2018-09-28T08:14:47.833Z,59.30
2018-09-28T08:17:16.345Z,58.91
2018-09-28T08:19:44.840Z,58.43
2018-09-28T08:22:13.426Z,57.69
2018-09-28T08:24:42.047Z,57.28
2018-09-28T08:27:10.540Z,57.06
2018-09-28T08:29:39.088Z,57.47
2018-09-28T08:32:07.990Z,56.89
2018-09-28T08:34:36.538Z,56.34
2018-09-28T08:37:05.084Z,55.32
2018-09-28T08:39:33.865Z,55.82
2018-09-28T08:42:02.404Z,56.65
2018-09-28T08:44:30.955Z,54.32
2018-09-28T08:46:59.542Z,54.18
2018-09-28T08:49:28.101Z,54.05
2018-09-28T08:51:57.083Z,54.30
2018-09-28T08:54:25.631Z,54.40
2018-09-28T08:56:54.226Z,55.14
2018-09-28T08:59:22.766Z,55.18
2018-09-28T09:01:51.646Z,53.76
2018-09-28T09:04:20.192Z,54.36
2018-09-28T09:06:48.731Z,53.98
2018-09-28T09:09:17.260Z,53.35
2018-09-28T09:11:45.812Z,54.71
2018-09-28T09:14:14.406Z,54.18
2018-09-28T09:16:42.952Z,53.01
2018-09-28T09:19:11.747Z,52.82
2018-09-28T09:21:40.303Z,52.49
2018-09-28T09:24:08.853Z,51.08
2018-09-28T09:26:37.399Z,50.46
2018-09-28T09:29:05.937Z,51.58
2018-09-28T09:31:34.484Z,50.69
2018-09-28T09:34:03.034Z,50.75
2018-09-28T09:36:31.560Z,48.54
2018-09-28T09:39:00.106Z,49.70
2018-09-28T09:41:28.656Z,49.66
2018-09-28T09:43:57.174Z,49.99
2018-09-28T09:46:25.707Z,51.03
2018-09-28T09:48:54.205Z,51.21
2018-09-28T09:51:22.725Z,51.86
2018-09-28T09:53:51.276Z,52.60
2018-09-28T09:56:19.787Z,52.76
2018-09-28T09:58:48.278Z,52.24
2018-09-28T10:01:22.181Z,53.55
2018-09-28T10:03:51.656Z,51.53
2018-09-28T10:06:20.330Z,52.72
2018-09-28T10:08:49.730Z,53.26
2018-09-28T10:11:18.304Z,52.06
2018-09-28T10:13:46.879Z,53.36
2018-09-28T10:16:15.382Z,52.95
2018-09-28T10:18:44.459Z,53.75
2018-09-28T10:21:13.063Z,55.44
2018-09-28T10:23:41.562Z,54.42
2018-09-28T10:26:10.111Z,54.58
2018-09-28T10:28:38.747Z,55.14
2018-09-28T10:31:07.296Z,54.75
2018-09-28T10:33:35.897Z,54.39
2018-09-28T10:36:04.357Z,54.33
2018-09-28T10:38:32.907Z,54.30
2018-09-28T10:41:01.542Z,52.79
2018-09-28T10:43:30.055Z,51.92
2018-09-28T10:45:58.579Z,50.28
2018-09-28T10:48:27.086Z,48.88
2018-09-28T10:50:55.668Z,49.66
2018-09-28T10:53:24.179Z,48.91
2018-09-28T10:55:52.679Z,49.95
2018-09-28T10:58:21.242Z,49.60
2018-09-28T11:00:49.857Z,48.73
2018-09-28T11:03:18.478Z,46.59
2018-09-28T11:05:46.984Z,46.62
2018-09-28T11:08:15.586Z,46.32
2018-09-28T11:10:44.208Z,47.03
2018-09-28T11:13:12.826Z,49.75
2018-09-28T11:15:41.421Z,51.94
2018-09-28T11:18:09.914Z,52.26
2018-09-28T11:20:38.430Z,54.54
2018-09-28T11:23:07.007Z,53.62
2018-09-28T11:25:35.570Z,54.09
2018-09-28T11:28:04.099Z,54.07
2018-09-28T11:30:32.623Z,54.36
2018-09-28T11:33:01.302Z,55.26
2018-09-28T11:35:29.826Z,55.24
2018-09-28T11:37:58.341Z,56.26
2018-09-28T11:40:26.833Z,55.41
2018-09-28T11:42:55.356Z,56.01
2018-09-28T11:45:23.900Z,54.09
2018-09-28T11:47:52.422Z,54.58
2018-09-28T11:50:20.934Z,53.17
2018-09-28T11:52:49.725Z,52.30
2018-09-28T11:55:18.268Z,50.17
2018-09-28T11:57:46.819Z,49.29
2018-09-28T12:00:15.328Z,47.92
2018-09-28T12:02:43.825Z,47.93
2018-09-28T12:05:12.454Z,47.62
2018-09-28T12:07:40.963Z,49.02
2018-09-28T12:10:09.552Z,48.72
2018-09-28T12:12:38.094Z,49.51
2018-09-28T12:15:06.753Z,49.31
2018-09-28T12:17:35.221Z,49.73
2018-09-28T12:20:03.950Z,48.56
2018-09-28T12:22:32.454Z,48.83
2018-09-28T12:25:00.966Z,47.91
2018-09-28T12:27:29.485Z,49.48
2018-09-28T12:29:58.263Z,50.83
2018-09-28T12:32:26.791Z,51.20
2018-09-28T12:34:55.270Z,49.99
2018-09-28T12:37:23.810Z,49.91
2018-09-28T12:39:52.480Z,49.92
2018-09-28T12:42:20.977Z,49.83
2018-09-28T12:44:49.585Z,47.59
2018-09-28T12:47:24.340Z,46.88
2018-09-28T12:49:52.851Z,46.38
2018-09-28T12:52:21.415Z,45.61
2018-09-28T12:54:50.110Z,43.00
2018-09-28T12:57:18.601Z,43.17
2018-09-28T12:59:47.103Z,43.66
2018-09-28T13:02:15.657Z,43.85
2018-09-28T13:04:44.185Z,45.09
2018-09-28T13:07:12.784Z,43.89
2018-09-28T13:09:41.305Z,44.37
2018-09-28T13:12:09.976Z,42.96
2018-09-28T13:14:38.554Z,43.57
2018-09-28T13:17:07.152Z,45.11
2018-09-28T13:19:35.698Z,46.81
2018-09-28T13:22:04.213Z,48.07
2018-09-28T13:24:32.759Z,48.19
2018-09-28T13:27:01.334Z,49.39
2018-09-28T13:29:29.862Z,49.62
2018-09-28T13:31:58.379Z,50.42
2018-09-28T13:34:26.914Z,50.12
2018-09-28T13:36:55.481Z,49.81
2018-09-28T13:39:24.066Z,50.01
2018-09-28T13:41:52.555Z,47.72
2018-09-28T13:44:21.136Z,46.52
2018-09-28T13:46:49.866Z,46.87
2018-09-28T13:49:18.359Z,47.25
2018-09-28T13:51:46.975Z,47.13
2018-09-28T13:54:16.311Z,45.32
2018-09-28T13:56:44.908Z,44.38
2018-09-28T13:59:14.714Z,44.01
2018-09-28T14:01:43.324Z,42.87
2018-09-28T14:04:11.822Z,43.94
2018-09-28T14:06:40.398Z,44.19
2018-09-28T14:09:09.926Z,45.60
2018-09-28T14:11:38.669Z,44.63
2018-09-28T14:14:07.324Z,45.51
2018-09-28T14:16:37.227Z,45.22
2018-09-28T14:19:05.815Z,45.29
2018-09-28T14:21:34.623Z,45.84
2018-09-28T14:24:03.216Z,45.41
2018-09-28T14:26:31.749Z,45.05
2018-09-28T14:29:00.299Z,46.22
2018-09-28T14:31:29.502Z,47.12
2018-09-28T14:33:58.080Z,46.88
2018-09-28T14:36:26.679Z,47.14
2018-09-28T14:38:55.226Z,47.44
2018-09-28T14:41:23.740Z,48.07
2018-09-28T14:43:52.269Z,48.50
2018-09-28T14:46:20.863Z,48.94
2018-09-28T14:48:49.572Z,49.01
2018-09-28T14:51:18.265Z,50.09
2018-09-28T14:53:47.530Z,50.79
2018-09-28T14:56:16.902Z,50.46
2018-09-28T14:58:46.234Z,50.92
2018-09-28T15:01:15.526Z,50.76
2018-09-28T15:03:44.042Z,51.28
2018-09-28T15:06:12.597Z,52.12
2018-09-28T15:08:41.276Z,53.15
2018-09-28T15:11:09.762Z,52.94
2018-09-28T15:13:38.352Z,53.14
2018-09-28T15:16:07.357Z,53.16
2018-09-28T15:18:37.217Z,53.62
2018-09-28T15:21:05.991Z,53.79
2018-09-28T15:23:34.766Z,52.27
2018-09-28T15:26:03.434Z,51.74
2018-09-28T15:28:32.091Z,50.37
2018-09-28T15:31:01.775Z,50.76
2018-09-28T15:33:33.074Z,51.32
2018-09-28T15:36:02.425Z,51.63
2018-09-28T15:38:30.935Z,51.42
2018-09-28T15:40:59.569Z,52.09
2018-09-28T15:43:28.100Z,52.04
2018-09-28T15:45:57.569Z,52.68
2018-09-28T15:48:26.064Z,53.72
2018-09-28T15:50:55.275Z,53.59
2018-09-28T15:53:23.782Z,53.65
2018-09-28T15:55:52.314Z,54.11
2018-09-28T15:58:21.081Z,53.82
2018-09-28T16:00:49.770Z,53.81
2018-09-28T16:03:18.286Z,53.83
2018-09-28T16:05:47.610Z,54.22
2018-09-28T16:08:16.102Z,53.81
2018-09-28T16:10:44.634Z,54.53
2018-09-28T16:13:13.174Z,54.38
2018-09-28T16:15:41.693Z,54.91
2018-09-28T16:18:11.459Z,55.50
2018-09-28T16:20:40.769Z,55.51
2018-09-28T16:23:09.269Z,56.37
2018-09-28T16:25:37.757Z,56.38
2018-09-28T16:28:06.279Z,57.13
2018-09-28T16:30:34.813Z,56.65
2018-09-28T16:33:03.321Z,56.82
2018-09-28T16:35:32.083Z,57.03
2018-09-28T16:38:00.505Z,56.77
2018-09-28T16:40:29.087Z,57.10
2018-09-28T16:42:57.603Z,58.29
2018-09-28T16:45:26.205Z,57.68
2018-09-28T16:47:56.234Z,57.73
2018-09-28T16:50:24.865Z,57.82
2018-09-28T16:52:53.581Z,57.56
2018-09-28T16:55:22.281Z,57.84
2018-09-28T16:57:50.956Z,58.06
2018-09-28T17:00:19.454Z,57.54
2018-09-28T17:02:48.019Z,57.50
2018-09-28T17:05:16.502Z,57.89
2018-09-28T17:07:45.018Z,57.63
2018-09-28T17:10:13.522Z,58.34
2018-09-28T17:12:42.009Z,57.54
2018-09-28T17:15:10.629Z,58.24
2018-09-28T17:17:39.249Z,58.40
2018-09-28T17:20:07.899Z,58.85
2018-09-28T17:22:36.504Z,59.07
2018-09-28T17:25:05.005Z,60.07
2018-09-28T17:27:33.578Z,60.73
2018-09-28T17:34:52.151Z,60.40
2018-09-28T17:37:20.735Z,60.24
2018-09-28T17:39:49.284Z,60.44
2018-09-28T17:42:17.765Z,59.84
2018-09-28T17:44:47.077Z,59.31
2018-09-28T17:47:15.681Z,59.57
2018-09-28T17:49:44.203Z,60.07
2018-09-28T17:52:12.660Z,59.94
2018-09-28T17:54:41.261Z,59.80
2018-09-28T17:57:09.798Z,59.93
2018-09-28T17:59:38.290Z,59.48
2018-09-28T18:02:12.376Z,60.65
2018-09-28T18:04:41.690Z,60.28
2018-09-28T18:07:10.193Z,59.80
2018-09-28T18:09:38.715Z,60.87
2018-09-28T18:14:34.723Z,61.07
2018-09-28T18:17:03.274Z,60.91
2018-09-28T18:19:31.838Z,61.46
2018-09-28T18:22:00.442Z,61.48
2018-09-28T18:24:29.004Z,61.96
2018-09-28T18:26:57.569Z,62.35
2018-09-28T18:29:27.191Z,62.03
2018-09-28T18:31:55.686Z,61.70
2018-09-28T18:34:24.284Z,61.71
2018-09-28T18:36:52.814Z,62.55
2018-09-28T18:39:21.406Z,62.15
2018-09-28T18:41:50.623Z,62.68
2018-09-28T18:44:19.085Z,63.58
2018-09-28T18:46:47.565Z,63.41
2018-09-28T18:49:16.402Z,63.96
2018-09-28T18:51:44.916Z,64.43
2018-09-28T18:54:13.410Z,64.83
2018-09-28T18:56:41.978Z,65.74
2018-09-28T18:59:11.335Z,66.75
2018-09-28T19:01:39.885Z,66.36
2018-09-28T19:04:10.311Z,67.47
2018-09-28T19:06:38.854Z,67.96
2018-09-28T19:09:09.473Z,68.36
2018-09-28T19:11:38.311Z,68.71
2018-09-28T19:14:06.825Z,68.52
2018-09-28T19:16:35.330Z,69.12
2018-09-28T19:19:03.873Z,69.15
2018-09-28T19:21:32.524Z,69.48
2018-09-28T19:24:01.177Z,70.07
2018-09-28T19:26:29.702Z,69.87
2018-09-28T19:28:58.738Z,69.92
2018-09-28T19:31:27.289Z,70.21
2018-09-28T19:33:56.585Z,70.60
2018-09-28T19:36:25.859Z,70.80
2018-09-28T19:38:54.561Z,70.88
2018-09-28T19:41:23.103Z,70.71
2018-09-28T19:43:52.626Z,70.91
2018-09-28T19:46:21.222Z,70.57
2018-09-28T19:48:49.739Z,70.84
2018-09-28T19:51:18.441Z,71.03
2018-09-28T19:53:47.141Z,71.27
2018-09-28T19:56:15.668Z,72.07
2018-09-28T19:58:44.581Z,71.93
2018-09-28T20:01:13.163Z,72.02
2018-09-28T20:03:41.689Z,72.37
2018-09-28T20:06:10.381Z,71.96
2018-09-28T20:08:38.954Z,72.65
2018-09-28T20:11:07.505Z,72.97
2018-09-28T20:13:35.990Z,73.46
2018-09-28T20:16:04.476Z,74.16
2018-09-28T20:18:33.349Z,74.25
2018-09-28T20:21:01.967Z,74.01
2018-09-28T20:23:30.633Z,74.44
2018-09-28T20:25:59.166Z,74.66
2018-09-28T20:28:27.670Z,74.97
2018-09-28T20:30:56.237Z,74.95
2018-09-28T20:33:24.821Z,75.42
2018-09-28T20:35:53.400Z,75.63
2018-09-28T20:38:22.057Z,76.39
2018-09-28T20:40:50.602Z,76.21
2018-09-28T20:43:19.173Z,75.89
2018-09-28T20:45:47.647Z,75.98
2018-09-28T20:48:16.255Z,76.08
2018-09-28T20:50:44.714Z,75.99
2018-09-28T20:53:13.296Z,75.60
2018-09-28T20:55:41.871Z,75.99
2018-09-28T20:58:10.311Z,75.92
2018-09-28T21:00:39.046Z,76.15
2018-09-28T21:03:07.613Z,75.84
2018-09-28T21:05:36.666Z,75.48
2018-09-28T21:08:05.179Z,75.37
2018-09-28T21:10:33.734Z,75.55
2018-09-28T21:13:02.270Z,75.70
2018-09-28T21:15:31.105Z,75.93
2018-09-28T21:17:59.585Z,76.21
2018-09-28T21:20:28.067Z,76.17
2018-09-28T21:22:56.625Z,76.47
2018-09-28T21:25:25.545Z,76.89
2018-09-28T21:27:54.029Z,76.97
2018-09-28T21:30:22.556Z,77.45
2018-09-28T21:32:51.091Z,77.25
2018-09-28T21:35:19.588Z,77.94
2018-09-28T21:37:48.122Z,77.52
2018-09-28T21:40:16.927Z,77.15
2018-09-28T21:42:45.733Z,77.33
2018-09-28T21:45:14.205Z,77.57
2018-09-28T21:47:42.757Z,78.08
2018-09-28T21:50:11.921Z,78.58
2018-09-28T21:52:40.378Z,78.45
2018-09-28T21:55:08.938Z,78.42
2018-09-28T21:57:38.645Z,78.10
2018-09-28T22:00:07.833Z,78.17
2018-09-28T22:02:36.589Z,78.27
2018-09-28T22:05:05.241Z,78.71
2018-09-28T22:07:33.778Z,79.79
2018-09-28T22:10:02.331Z,80.67
2018-09-28T22:12:30.798Z,80.67
2018-09-28T22:14:59.342Z,80.25
2018-09-28T22:17:27.896Z,80.08
2018-09-28T22:19:56.462Z,80.90
2018-09-28T22:22:24.951Z,81.34
2018-09-28T22:24:53.443Z,80.72
2018-09-28T22:27:22.444Z,80.40
2018-09-28T22:29:50.983Z,81.05
2018-09-28T22:32:20.266Z,79.94
2018-09-28T22:34:48.766Z,80.51
2018-09-28T22:37:17.766Z,79.71
2018-09-28T22:39:46.265Z,79.97
2018-09-28T22:42:14.813Z,80.06
2018-09-28T22:44:43.377Z,80.32
2018-09-28T22:47:11.926Z,80.52
2018-09-28T22:49:40.401Z,80.52
2018-09-28T22:52:08.893Z,79.94
2018-09-28T22:54:38.561Z,80.37
2018-09-28T22:57:10.021Z,80.42
2018-09-28T22:59:38.561Z,79.98
2018-09-28T23:02:07.110Z,79.46
2018-09-28T23:04:35.617Z,79.75
2018-09-28T23:07:04.141Z,79.79
2018-09-28T23:09:32.629Z,79.93
2018-09-28T23:12:01.222Z,79.71
2018-09-28T23:14:29.713Z,79.86
2018-09-28T23:16:58.235Z,79.99
2018-09-28T23:19:26.816Z,80.48
2018-09-28T23:21:55.318Z,80.11
2018-09-28T23:24:23.905Z,80.03
2018-09-28T23:26:52.404Z,80.27
2018-09-28T23:29:21.158Z,80.88
2018-09-28T23:31:49.651Z,81.22
2018-09-28T23:34:18.242Z,81.29
2018-09-28T23:36:46.834Z,81.01
2018-09-28T23:39:15.917Z,80.88
2018-09-28T23:41:45.119Z,80.65
2018-09-28T23:44:13.639Z,80.42
2018-09-28T23:46:42.194Z,80.78
2018-09-28T23:49:10.669Z,81.24
2018-09-28T23:51:39.194Z,81.74
2018-09-28T23:54:07.665Z,82.12
2018-09-28T23:56:36.770Z,82.42
2018-09-28T23:59:06.062Z,82.03
